sensor_id;sensor_type;location;lat;lon;timestamp;P1;durP1;ratioP1;P2;durP2;ratioP2
66741;SDS011;53654;54.152;19.432;2023-07-29T00:02:15;10.50;;;9.70;;
66741;SDS011;53654;54.152;19.432;2023-07-29T00:04:43;10.60;;;9.70;;
66741;SDS011;53654;54.152;19.432;2023-07-29T00:07:11;10.10;;;9.30;;
66741;SDS011;53654;54.152;19.432;2023-07-29T00:09:39;10.60;;;9.70;;
66741;SDS011;53654;54.152;19.432;2023-07-29T00:12:07;10.80;;;10.00;;
66741;SDS011;53654;54.152;19.432;2023-07-29T00:14:35;10.80;;;9.90;;
66741;SDS011;53654;54.152;19.432;2023-07-29T00:17:03;10.30;;;9.50;;
66741;SDS011;53654;54.152;19.432;2023-07-29T00:19:32;10.90;;;10.10;;
66741;SDS011;53654;54.152;19.432;2023-07-29T00:22:01;10.50;;;9.60;;
66741;SDS011;53654;54.152;19.432;2023-07-29T00:24:29;10.20;;;9.40;;
66741;SDS011;53654;54.152;19.432;2023-07-29T00:26:57;10.80;;;9.90;;
66741;SDS011;53654;54.152;19.432;2023-07-29T00:29:25;11.20;;;10.30;;
66741;SDS011;53654;54.152;19.432;2023-07-29T00:31:53;10.50;;;9.70;;
66741;SDS011;53654;54.152;19.432;2023-07-29T00:34:21;10.10;;;9.40;;
66741;SDS011;53654;54.152;19.432;2023-07-29T00:36:49;10.50;;;9.60;;
66741;SDS011;53654;54.152;19.432;2023-07-29T00:39:19;10.50;;;9.60;;
66741;SDS011;53654;54.152;19.432;2023-07-29T00:41:47;10.10;;;9.30;;
66741;SDS011;53654;54.152;19.432;2023-07-29T00:44:15;9.90;;;9.10;;
66741;SDS011;53654;54.152;19.432;2023-07-29T00:46:43;9.80;;;8.90;;
66741;SDS011;53654;54.152;19.432;2023-07-29T00:49:14;10.50;;;9.60;;
66741;SDS011;53654;54.152;19.432;2023-07-29T00:51:42;10.10;;;9.10;;
66741;SDS011;53654;54.152;19.432;2023-07-29T00:54:11;10.10;;;9.30;;
66741;SDS011;53654;54.152;19.432;2023-07-29T00:56:40;10.10;;;9.10;;
66741;SDS011;53654;54.152;19.432;2023-07-29T00:59:08;9.30;;;8.50;;
66741;SDS011;53654;54.152;19.432;2023-07-29T01:01:36;18.50;;;16.60;;
66741;SDS011;53654;54.152;19.432;2023-07-29T01:04:05;14.30;;;12.90;;
66741;SDS011;53654;54.152;19.432;2023-07-29T01:11:56;33.40;;;21.40;;
66741;SDS011;53654;54.152;19.432;2023-07-29T01:14:39;35.50;;;20.00;;
66741;SDS011;53654;54.152;19.432;2023-07-29T01:17:19;42.40;;;22.00;;
66741;SDS011;53654;54.152;19.432;2023-07-29T01:20:09;34.20;;;20.90;;
66741;SDS011;53654;54.152;19.432;2023-07-29T01:22:41;39.80;;;22.30;;
66741;SDS011;53654;54.152;19.432;2023-07-29T01:25:11;57.40;;;23.20;;
66741;SDS011;53654;54.152;19.432;2023-07-29T01:27:40;85.10;;;25.30;;
66741;SDS011;53654;54.152;19.432;2023-07-29T01:30:09;51.70;;;24.30;;
66741;SDS011;53654;54.152;19.432;2023-07-29T01:35:16;88.60;;;29.00;;
66741;SDS011;53654;54.152;19.432;2023-07-29T01:37:48;74.40;;;27.80;;
66741;SDS011;53654;54.152;19.432;2023-07-29T01:40:19;61.90;;;28.70;;
66741;SDS011;53654;54.152;19.432;2023-07-29T01:42:49;43.60;;;30.20;;
66741;SDS011;53654;54.152;19.432;2023-07-29T01:45:19;49.60;;;28.30;;
66741;SDS011;53654;54.152;19.432;2023-07-29T01:47:52;54.60;;;30.30;;
66741;SDS011;53654;54.152;19.432;2023-07-29T01:50:21;47.50;;;30.80;;
66741;SDS011;53654;54.152;19.432;2023-07-29T01:52:49;45.10;;;31.30;;
66741;SDS011;53654;54.152;19.432;2023-07-29T01:55:17;32.40;;;29.00;;
66741;SDS011;53654;54.152;19.432;2023-07-29T01:57:46;30.00;;;26.90;;
66741;SDS011;53654;54.152;19.432;2023-07-29T02:00:15;27.90;;;25.00;;
66741;SDS011;53654;54.152;19.432;2023-07-29T02:02:45;26.20;;;23.40;;
66741;SDS011;53654;54.152;19.432;2023-07-29T02:05:13;27.60;;;24.50;;
66741;SDS011;53654;54.152;19.432;2023-07-29T02:07:41;27.40;;;24.50;;
66741;SDS011;53654;54.152;19.432;2023-07-29T02:10:10;27.10;;;24.40;;
66741;SDS011;53654;54.152;19.432;2023-07-29T02:12:38;28.50;;;25.40;;
66741;SDS011;53654;54.152;19.432;2023-07-29T02:15:06;55.50;;;31.20;;
66741;SDS011;53654;54.152;19.432;2023-07-29T02:17:36;38.00;;;29.40;;
66741;SDS011;53654;54.152;19.432;2023-07-29T02:20:04;42.50;;;26.80;;
66741;SDS011;53654;54.152;19.432;2023-07-29T02:22:33;45.40;;;26.60;;
66741;SDS011;53654;54.152;19.432;2023-07-29T02:25:02;45.20;;;27.50;;
66741;SDS011;53654;54.152;19.432;2023-07-29T02:27:31;60.20;;;29.10;;
66741;SDS011;53654;54.152;19.432;2023-07-29T02:29:59;53.80;;;28.50;;
66741;SDS011;53654;54.152;19.432;2023-07-29T02:32:28;64.60;;;29.30;;
66741;SDS011;53654;54.152;19.432;2023-07-29T02:34:56;54.60;;;29.10;;
66741;SDS011;53654;54.152;19.432;2023-07-29T02:37:24;42.70;;;29.30;;
66741;SDS011;53654;54.152;19.432;2023-07-29T02:39:53;38.00;;;29.70;;
66741;SDS011;53654;54.152;19.432;2023-07-29T02:42:21;32.30;;;29.20;;
66741;SDS011;53654;54.152;19.432;2023-07-29T02:44:49;31.40;;;28.30;;
66741;SDS011;53654;54.152;19.432;2023-07-29T02:47:17;33.40;;;30.40;;
66741;SDS011;53654;54.152;19.432;2023-07-29T02:49:45;36.10;;;32.90;;
66741;SDS011;53654;54.152;19.432;2023-07-29T02:52:14;35.60;;;32.30;;
66741;SDS011;53654;54.152;19.432;2023-07-29T02:54:42;32.10;;;29.10;;
66741;SDS011;53654;54.152;19.432;2023-07-29T02:57:13;31.30;;;28.30;;
66741;SDS011;53654;54.152;19.432;2023-07-29T02:59:41;27.40;;;24.80;;
66741;SDS011;53654;54.152;19.432;2023-07-29T03:02:09;26.00;;;23.60;;
66741;SDS011;53654;54.152;19.432;2023-07-29T03:04:37;24.80;;;22.70;;
66741;SDS011;53654;54.152;19.432;2023-07-29T03:07:05;23.90;;;21.80;;
66741;SDS011;53654;54.152;19.432;2023-07-29T03:09:34;22.60;;;20.60;;
66741;SDS011;53654;54.152;19.432;2023-07-29T03:12:02;21.70;;;19.80;;
66741;SDS011;53654;54.152;19.432;2023-07-29T03:14:30;22.50;;;20.70;;
66741;SDS011;53654;54.152;19.432;2023-07-29T03:17:01;21.20;;;19.30;;
66741;SDS011;53654;54.152;19.432;2023-07-29T03:19:31;22.10;;;20.30;;
66741;SDS011;53654;54.152;19.432;2023-07-29T03:22:00;22.10;;;20.30;;
66741;SDS011;53654;54.152;19.432;2023-07-29T03:24:28;21.80;;;19.90;;
66741;SDS011;53654;54.152;19.432;2023-07-29T03:26:56;21.50;;;19.70;;
66741;SDS011;53654;54.152;19.432;2023-07-29T03:29:24;22.70;;;20.70;;
66741;SDS011;53654;54.152;19.432;2023-07-29T03:31:52;22.50;;;20.60;;
66741;SDS011;53654;54.152;19.432;2023-07-29T03:34:20;21.40;;;19.70;;
66741;SDS011;53654;54.152;19.432;2023-07-29T03:36:48;21.20;;;19.40;;
66741;SDS011;53654;54.152;19.432;2023-07-29T03:39:18;22.00;;;20.00;;
66741;SDS011;53654;54.152;19.432;2023-07-29T03:41:46;25.60;;;23.40;;
66741;SDS011;53654;54.152;19.432;2023-07-29T03:44:14;24.90;;;22.80;;
66741;SDS011;53654;54.152;19.432;2023-07-29T03:46:43;24.80;;;22.60;;
66741;SDS011;53654;54.152;19.432;2023-07-29T03:49:11;24.20;;;22.20;;
66741;SDS011;53654;54.152;19.432;2023-07-29T03:51:39;24.10;;;22.10;;
66741;SDS011;53654;54.152;19.432;2023-07-29T03:54:07;25.20;;;22.90;;
66741;SDS011;53654;54.152;19.432;2023-07-29T03:56:35;24.40;;;22.40;;
66741;SDS011;53654;54.152;19.432;2023-07-29T03:59:05;24.90;;;22.70;;
66741;SDS011;53654;54.152;19.432;2023-07-29T04:01:34;24.80;;;22.90;;
66741;SDS011;53654;54.152;19.432;2023-07-29T04:04:02;23.50;;;21.60;;
66741;SDS011;53654;54.152;19.432;2023-07-29T04:06:31;24.50;;;22.50;;
66741;SDS011;53654;54.152;19.432;2023-07-29T04:09:00;25.10;;;23.10;;
66741;SDS011;53654;54.152;19.432;2023-07-29T04:11:29;24.50;;;22.50;;
66741;SDS011;53654;54.152;19.432;2023-07-29T04:13:57;24.00;;;22.20;;
66741;SDS011;53654;54.152;19.432;2023-07-29T04:16:25;23.90;;;22.00;;
66741;SDS011;53654;54.152;19.432;2023-07-29T04:18:54;22.20;;;20.40;;
66741;SDS011;53654;54.152;19.432;2023-07-29T04:21:22;20.30;;;18.70;;
66741;SDS011;53654;54.152;19.432;2023-07-29T04:23:50;18.20;;;16.70;;
66741;SDS011;53654;54.152;19.432;2023-07-29T04:26:19;17.60;;;16.20;;
66741;SDS011;53654;54.152;19.432;2023-07-29T04:28:47;16.30;;;15.00;;
66741;SDS011;53654;54.152;19.432;2023-07-29T04:31:15;15.70;;;14.40;;
66741;SDS011;53654;54.152;19.432;2023-07-29T04:33:43;14.80;;;13.70;;
66741;SDS011;53654;54.152;19.432;2023-07-29T04:36:13;14.30;;;13.20;;
66741;SDS011;53654;54.152;19.432;2023-07-29T04:38:43;14.90;;;13.70;;
66741;SDS011;53654;54.152;19.432;2023-07-29T04:41:11;13.70;;;12.60;;
66741;SDS011;53654;54.152;19.432;2023-07-29T04:43:39;17.10;;;15.80;;
66741;SDS011;53654;54.152;19.432;2023-07-29T04:46:08;12.60;;;11.70;;
66741;SDS011;53654;54.152;19.432;2023-07-29T04:48:36;11.90;;;11.00;;
66741;SDS011;53654;54.152;19.432;2023-07-29T04:51:05;11.50;;;10.70;;
66741;SDS011;53654;54.152;19.432;2023-07-29T04:53:33;11.80;;;10.80;;
66741;SDS011;53654;54.152;19.432;2023-07-29T04:56:02;11.90;;;10.90;;
66741;SDS011;53654;54.152;19.432;2023-07-29T04:58:30;11.30;;;10.50;;
66741;SDS011;53654;54.152;19.432;2023-07-29T05:01:03;10.80;;;10.00;;
66741;SDS011;53654;54.152;19.432;2023-07-29T05:03:31;10.80;;;9.90;;
66741;SDS011;53654;54.152;19.432;2023-07-29T05:06:00;10.90;;;10.10;;
66741;SDS011;53654;54.152;19.432;2023-07-29T05:08:28;10.60;;;9.70;;
66741;SDS011;53654;54.152;19.432;2023-07-29T05:10:56;10.60;;;9.70;;
66741;SDS011;53654;54.152;19.432;2023-07-29T05:13:24;10.40;;;9.60;;
66741;SDS011;53654;54.152;19.432;2023-07-29T05:15:53;10.50;;;9.70;;
66741;SDS011;53654;54.152;19.432;2023-07-29T05:18:21;10.40;;;9.60;;
66741;SDS011;53654;54.152;19.432;2023-07-29T05:20:49;10.10;;;9.30;;
66741;SDS011;53654;54.152;19.432;2023-07-29T05:23:18;9.70;;;9.00;;
66741;SDS011;53654;54.152;19.432;2023-07-29T05:25:46;10.40;;;9.60;;
66741;SDS011;53654;54.152;19.432;2023-07-29T05:28:14;9.70;;;9.00;;
66741;SDS011;53654;54.152;19.432;2023-07-29T05:30:43;10.20;;;9.40;;
66741;SDS011;53654;54.152;19.432;2023-07-29T05:33:11;9.20;;;8.50;;
66741;SDS011;53654;54.152;19.432;2023-07-29T05:35:40;9.10;;;8.40;;
66741;SDS011;53654;54.152;19.432;2023-07-29T05:38:08;9.10;;;8.50;;
66741;SDS011;53654;54.152;19.432;2023-07-29T05:40:37;8.70;;;8.10;;
66741;SDS011;53654;54.152;19.432;2023-07-29T05:43:05;9.00;;;8.30;;
66741;SDS011;53654;54.152;19.432;2023-07-29T05:45:34;8.90;;;8.30;;
66741;SDS011;53654;54.152;19.432;2023-07-29T05:48:02;8.10;;;7.30;;
66741;SDS011;53654;54.152;19.432;2023-07-29T05:50:30;8.20;;;7.60;;
66741;SDS011;53654;54.152;19.432;2023-07-29T05:52:58;8.30;;;7.60;;
66741;SDS011;53654;54.152;19.432;2023-07-29T05:55:26;8.30;;;7.70;;
66741;SDS011;53654;54.152;19.432;2023-07-29T05:57:54;8.20;;;7.60;;
66741;SDS011;53654;54.152;19.432;2023-07-29T06:00:23;8.30;;;7.70;;
66741;SDS011;53654;54.152;19.432;2023-07-29T06:02:51;8.40;;;7.70;;
66741;SDS011;53654;54.152;19.432;2023-07-29T06:05:20;8.10;;;7.50;;
66741;SDS011;53654;54.152;19.432;2023-07-29T06:07:48;8.30;;;7.70;;
66741;SDS011;53654;54.152;19.432;2023-07-29T06:10:16;7.90;;;7.20;;
66741;SDS011;53654;54.152;19.432;2023-07-29T06:12:47;7.70;;;7.10;;
66741;SDS011;53654;54.152;19.432;2023-07-29T06:15:16;7.60;;;6.90;;
66741;SDS011;53654;54.152;19.432;2023-07-29T06:17:44;7.60;;;7.10;;
66741;SDS011;53654;54.152;19.432;2023-07-29T06:20:12;7.30;;;6.70;;
66741;SDS011;53654;54.152;19.432;2023-07-29T06:22:40;7.30;;;6.80;;
66741;SDS011;53654;54.152;19.432;2023-07-29T06:25:09;7.40;;;6.80;;
66741;SDS011;53654;54.152;19.432;2023-07-29T06:27:38;7.00;;;6.50;;
66741;SDS011;53654;54.152;19.432;2023-07-29T06:30:06;7.10;;;6.50;;
66741;SDS011;53654;54.152;19.432;2023-07-29T06:32:35;7.10;;;6.60;;
66741;SDS011;53654;54.152;19.432;2023-07-29T06:35:03;7.30;;;6.70;;
66741;SDS011;53654;54.152;19.432;2023-07-29T06:37:32;7.30;;;6.80;;
66741;SDS011;53654;54.152;19.432;2023-07-29T06:40:01;7.20;;;6.60;;
66741;SDS011;53654;54.152;19.432;2023-07-29T06:42:29;7.50;;;7.00;;
66741;SDS011;53654;54.152;19.432;2023-07-29T06:44:57;7.20;;;6.70;;
66741;SDS011;53654;54.152;19.432;2023-07-29T06:47:26;7.30;;;6.70;;
66741;SDS011;53654;54.152;19.432;2023-07-29T06:49:54;7.20;;;6.60;;
66741;SDS011;53654;54.152;19.432;2023-07-29T06:52:22;7.10;;;6.60;;
66741;SDS011;53654;54.152;19.432;2023-07-29T06:54:50;6.70;;;6.20;;
66741;SDS011;53654;54.152;19.432;2023-07-29T06:57:19;7.40;;;6.80;;
66741;SDS011;53654;54.152;19.432;2023-07-29T06:59:47;6.70;;;6.20;;
66741;SDS011;53654;54.152;19.432;2023-07-29T07:02:15;5.80;;;5.30;;
66741;SDS011;53654;54.152;19.432;2023-07-29T07:04:43;5.80;;;5.40;;
66741;SDS011;53654;54.152;19.432;2023-07-29T07:07:11;5.60;;;5.20;;
66741;SDS011;53654;54.152;19.432;2023-07-29T07:09:40;5.60;;;5.20;;
66741;SDS011;53654;54.152;19.432;2023-07-29T07:12:08;5.70;;;5.20;;
66741;SDS011;53654;54.152;19.432;2023-07-29T07:14:36;5.60;;;5.10;;
66741;SDS011;53654;54.152;19.432;2023-07-29T07:17:05;5.70;;;5.30;;
66741;SDS011;53654;54.152;19.432;2023-07-29T07:19:33;5.70;;;5.20;;
66741;SDS011;53654;54.152;19.432;2023-07-29T07:22:01;5.40;;;5.10;;
66741;SDS011;53654;54.152;19.432;2023-07-29T07:24:29;5.50;;;5.10;;
66741;SDS011;53654;54.152;19.432;2023-07-29T07:26:57;5.70;;;5.20;;
66741;SDS011;53654;54.152;19.432;2023-07-29T07:29:25;5.40;;;5.00;;
66741;SDS011;53654;54.152;19.432;2023-07-29T07:31:54;5.20;;;4.80;;
66741;SDS011;53654;54.152;19.432;2023-07-29T07:34:22;5.10;;;4.70;;
66741;SDS011;53654;54.152;19.432;2023-07-29T07:36:50;4.90;;;4.50;;
66741;SDS011;53654;54.152;19.432;2023-07-29T07:39:18;4.90;;;4.60;;
66741;SDS011;53654;54.152;19.432;2023-07-29T07:41:46;5.00;;;4.60;;
66741;SDS011;53654;54.152;19.432;2023-07-29T07:44:14;4.90;;;4.50;;
66741;SDS011;53654;54.152;19.432;2023-07-29T07:46:45;4.80;;;4.40;;
66741;SDS011;53654;54.152;19.432;2023-07-29T07:49:13;4.80;;;4.40;;
66741;SDS011;53654;54.152;19.432;2023-07-29T07:51:43;4.30;;;4.00;;
66741;SDS011;53654;54.152;19.432;2023-07-29T07:54:11;3.90;;;3.60;;
66741;SDS011;53654;54.152;19.432;2023-07-29T07:56:39;4.50;;;4.10;;
66741;SDS011;53654;54.152;19.432;2023-07-29T07:59:08;4.20;;;3.80;;
66741;SDS011;53654;54.152;19.432;2023-07-29T08:01:37;4.40;;;4.10;;
66741;SDS011;53654;54.152;19.432;2023-07-29T08:04:06;4.20;;;3.80;;
66741;SDS011;53654;54.152;19.432;2023-07-29T08:06:35;3.80;;;3.50;;
66741;SDS011;53654;54.152;19.432;2023-07-29T08:09:03;3.90;;;3.60;;
66741;SDS011;53654;54.152;19.432;2023-07-29T08:11:31;3.90;;;3.60;;
66741;SDS011;53654;54.152;19.432;2023-07-29T08:13:59;3.70;;;3.40;;
66741;SDS011;53654;54.152;19.432;2023-07-29T08:16:28;4.10;;;3.40;;
66741;SDS011;53654;54.152;19.432;2023-07-29T08:18:56;3.70;;;3.40;;
66741;SDS011;53654;54.152;19.432;2023-07-29T08:21:24;3.50;;;3.30;;
66741;SDS011;53654;54.152;19.432;2023-07-29T08:23:52;3.20;;;3.00;;
66741;SDS011;53654;54.152;19.432;2023-07-29T08:26:20;3.60;;;3.30;;
66741;SDS011;53654;54.152;19.432;2023-07-29T08:28:49;3.60;;;3.30;;
66741;SDS011;53654;54.152;19.432;2023-07-29T08:31:21;3.60;;;3.30;;
66741;SDS011;53654;54.152;19.432;2023-07-29T08:33:49;3.70;;;3.40;;
66741;SDS011;53654;54.152;19.432;2023-07-29T08:36:17;3.60;;;3.30;;
66741;SDS011;53654;54.152;19.432;2023-07-29T08:38:46;3.60;;;3.30;;
66741;SDS011;53654;54.152;19.432;2023-07-29T08:41:19;3.00;;;2.80;;
66741;SDS011;53654;54.152;19.432;2023-07-29T08:43:55;3.40;;;2.90;;
66741;SDS011;53654;54.152;19.432;2023-07-29T08:46:39;3.40;;;3.10;;
66741;SDS011;53654;54.152;19.432;2023-07-29T08:49:08;3.10;;;2.90;;
66741;SDS011;53654;54.152;19.432;2023-07-29T08:51:45;3.40;;;3.10;;
66741;SDS011;53654;54.152;19.432;2023-07-29T08:54:15;3.60;;;3.30;;
66741;SDS011;53654;54.152;19.432;2023-07-29T08:56:43;3.30;;;3.10;;
66741;SDS011;53654;54.152;19.432;2023-07-29T08:59:13;3.00;;;2.80;;
66741;SDS011;53654;54.152;19.432;2023-07-29T09:01:42;3.10;;;2.80;;
66741;SDS011;53654;54.152;19.432;2023-07-29T09:04:10;3.10;;;2.90;;
66741;SDS011;53654;54.152;19.432;2023-07-29T09:06:39;2.90;;;2.70;;
66741;SDS011;53654;54.152;19.432;2023-07-29T09:09:09;3.10;;;2.90;;
66741;SDS011;53654;54.152;19.432;2023-07-29T09:11:38;3.20;;;2.90;;
66741;SDS011;53654;54.152;19.432;2023-07-29T09:14:06;3.10;;;2.90;;
66741;SDS011;53654;54.152;19.432;2023-07-29T09:16:35;3.10;;;2.90;;
66741;SDS011;53654;54.152;19.432;2023-07-29T09:19:07;3.10;;;2.90;;
66741;SDS011;53654;54.152;19.432;2023-07-29T09:21:38;2.70;;;2.50;;
66741;SDS011;53654;54.152;19.432;2023-07-29T09:24:07;2.90;;;2.70;;
66741;SDS011;53654;54.152;19.432;2023-07-29T09:26:37;3.10;;;2.90;;
66741;SDS011;53654;54.152;19.432;2023-07-29T09:29:06;3.30;;;3.00;;
66741;SDS011;53654;54.152;19.432;2023-07-29T09:31:34;2.70;;;2.50;;
66741;SDS011;53654;54.152;19.432;2023-07-29T09:34:03;3.00;;;2.80;;
66741;SDS011;53654;54.152;19.432;2023-07-29T09:36:33;2.80;;;2.60;;
66741;SDS011;53654;54.152;19.432;2023-07-29T09:39:02;2.90;;;2.70;;
66741;SDS011;53654;54.152;19.432;2023-07-29T09:41:33;2.80;;;2.60;;
66741;SDS011;53654;54.152;19.432;2023-07-29T09:44:02;3.00;;;2.70;;
66741;SDS011;53654;54.152;19.432;2023-07-29T09:46:35;2.80;;;2.60;;
66741;SDS011;53654;54.152;19.432;2023-07-29T09:49:06;3.10;;;2.80;;
66741;SDS011;53654;54.152;19.432;2023-07-29T09:51:38;2.50;;;2.30;;
66741;SDS011;53654;54.152;19.432;2023-07-29T09:54:07;3.10;;;2.80;;
66741;SDS011;53654;54.152;19.432;2023-07-29T09:56:41;3.00;;;2.70;;
66741;SDS011;53654;54.152;19.432;2023-07-29T09:59:13;2.80;;;2.60;;
66741;SDS011;53654;54.152;19.432;2023-07-29T10:01:46;2.60;;;2.40;;
66741;SDS011;53654;54.152;19.432;2023-07-29T10:04:15;3.20;;;2.90;;
66741;SDS011;53654;54.152;19.432;2023-07-29T10:06:45;2.70;;;2.50;;
66741;SDS011;53654;54.152;19.432;2023-07-29T10:09:14;2.30;;;2.20;;
66741;SDS011;53654;54.152;19.432;2023-07-29T10:11:43;2.50;;;2.30;;
66741;SDS011;53654;54.152;19.432;2023-07-29T10:14:12;2.80;;;2.60;;
66741;SDS011;53654;54.152;19.432;2023-07-29T10:16:40;2.70;;;2.50;;
66741;SDS011;53654;54.152;19.432;2023-07-29T10:19:13;2.60;;;2.40;;
66741;SDS011;53654;54.152;19.432;2023-07-29T10:21:42;2.70;;;2.50;;
66741;SDS011;53654;54.152;19.432;2023-07-29T10:24:14;2.70;;;2.40;;
66741;SDS011;53654;54.152;19.432;2023-07-29T10:26:47;2.70;;;2.50;;
66741;SDS011;53654;54.152;19.432;2023-07-29T10:29:19;2.70;;;2.50;;
66741;SDS011;53654;54.152;19.432;2023-07-29T10:31:52;2.80;;;2.60;;
66741;SDS011;53654;54.152;19.432;2023-07-29T10:34:21;2.90;;;2.70;;
66741;SDS011;53654;54.152;19.432;2023-07-29T10:36:51;2.80;;;2.60;;
66741;SDS011;53654;54.152;19.432;2023-07-29T10:39:20;2.40;;;2.20;;
66741;SDS011;53654;54.152;19.432;2023-07-29T10:42:01;2.60;;;2.40;;
66741;SDS011;53654;54.152;19.432;2023-07-29T10:49:44;2.50;;;2.30;;
66741;SDS011;53654;54.152;19.432;2023-07-29T10:52:15;2.60;;;2.40;;
66741;SDS011;53654;54.152;19.432;2023-07-29T10:54:45;2.70;;;2.50;;
66741;SDS011;53654;54.152;19.432;2023-07-29T10:57:14;2.60;;;2.40;;
66741;SDS011;53654;54.152;19.432;2023-07-29T10:59:53;2.50;;;2.40;;
66741;SDS011;53654;54.152;19.432;2023-07-29T11:02:29;2.80;;;2.60;;
66741;SDS011;53654;54.152;19.432;2023-07-29T11:05:16;2.80;;;2.60;;
66741;SDS011;53654;54.152;19.432;2023-07-29T11:07:46;2.50;;;2.30;;
66741;SDS011;53654;54.152;19.432;2023-07-29T11:10:16;3.00;;;2.70;;
66741;SDS011;53654;54.152;19.432;2023-07-29T11:12:50;2.80;;;2.50;;
66741;SDS011;53654;54.152;19.432;2023-07-29T11:15:21;2.50;;;2.30;;
66741;SDS011;53654;54.152;19.432;2023-07-29T11:20:30;2.80;;;2.60;;
66741;SDS011;53654;54.152;19.432;2023-07-29T11:23:00;2.80;;;2.60;;
66741;SDS011;53654;54.152;19.432;2023-07-29T11:25:31;2.50;;;2.30;;
66741;SDS011;53654;54.152;19.432;2023-07-29T11:28:01;2.70;;;2.50;;
66741;SDS011;53654;54.152;19.432;2023-07-29T11:30:33;3.50;;;2.70;;
66741;SDS011;53654;54.152;19.432;2023-07-29T11:33:01;2.80;;;2.60;;
66741;SDS011;53654;54.152;19.432;2023-07-29T11:35:32;2.50;;;2.40;;
66741;SDS011;53654;54.152;19.432;2023-07-29T11:38:00;4.30;;;4.00;;
66741;SDS011;53654;54.152;19.432;2023-07-29T11:40:29;3.00;;;2.70;;
66741;SDS011;53654;54.152;19.432;2023-07-29T11:42:57;3.30;;;2.80;;
66741;SDS011;53654;54.152;19.432;2023-07-29T11:45:26;3.20;;;2.90;;
66741;SDS011;53654;54.152;19.432;2023-07-29T11:48:13;2.90;;;2.70;;
66741;SDS011;53654;54.152;19.432;2023-07-29T11:50:44;3.50;;;2.90;;
66741;SDS011;53654;54.152;19.432;2023-07-29T11:53:13;2.70;;;2.50;;
66741;SDS011;53654;54.152;19.432;2023-07-29T11:55:44;3.20;;;2.50;;
66741;SDS011;53654;54.152;19.432;2023-07-29T11:58:12;2.70;;;2.40;;
66741;SDS011;53654;54.152;19.432;2023-07-29T12:00:40;2.90;;;2.60;;
66741;SDS011;53654;54.152;19.432;2023-07-29T12:03:08;2.50;;;2.30;;
66741;SDS011;53654;54.152;19.432;2023-07-29T12:05:39;2.80;;;2.60;;
66741;SDS011;53654;54.152;19.432;2023-07-29T12:08:07;3.20;;;2.70;;
66741;SDS011;53654;54.152;19.432;2023-07-29T12:10:36;2.60;;;2.40;;
66741;SDS011;53654;54.152;19.432;2023-07-29T12:13:04;2.60;;;2.40;;
66741;SDS011;53654;54.152;19.432;2023-07-29T12:15:37;2.70;;;2.60;;
66741;SDS011;53654;54.152;19.432;2023-07-29T12:18:05;3.10;;;2.90;;
66741;SDS011;53654;54.152;19.432;2023-07-29T12:20:34;2.70;;;2.50;;
66741;SDS011;53654;54.152;19.432;2023-07-29T12:23:03;2.40;;;2.30;;
66741;SDS011;53654;54.152;19.432;2023-07-29T12:25:34;2.90;;;2.50;;
66741;SDS011;53654;54.152;19.432;2023-07-29T12:28:03;2.90;;;2.60;;
66741;SDS011;53654;54.152;19.432;2023-07-29T12:30:41;3.50;;;3.20;;
66741;SDS011;53654;54.152;19.432;2023-07-29T12:33:09;2.70;;;2.60;;
66741;SDS011;53654;54.152;19.432;2023-07-29T12:35:37;2.90;;;2.70;;
66741;SDS011;53654;54.152;19.432;2023-07-29T12:38:06;2.90;;;2.60;;
66741;SDS011;53654;54.152;19.432;2023-07-29T12:40:37;3.40;;;2.40;;
66741;SDS011;53654;54.152;19.432;2023-07-29T12:43:06;2.40;;;2.20;;
66741;SDS011;53654;54.152;19.432;2023-07-29T12:45:37;2.40;;;2.30;;
66741;SDS011;53654;54.152;19.432;2023-07-29T12:48:08;3.50;;;3.30;;
66741;SDS011;53654;54.152;19.432;2023-07-29T12:50:37;2.60;;;2.50;;
66741;SDS011;53654;54.152;19.432;2023-07-29T12:53:06;3.70;;;3.20;;
66741;SDS011;53654;54.152;19.432;2023-07-29T12:55:38;2.70;;;2.20;;
66741;SDS011;53654;54.152;19.432;2023-07-29T12:58:06;3.00;;;2.80;;
66741;SDS011;53654;54.152;19.432;2023-07-29T13:00:34;2.80;;;2.60;;
66741;SDS011;53654;54.152;19.432;2023-07-29T13:03:02;2.40;;;2.20;;
66741;SDS011;53654;54.152;19.432;2023-07-29T13:05:33;2.80;;;2.50;;
66741;SDS011;53654;54.152;19.432;2023-07-29T13:08:02;2.80;;;2.60;;
66741;SDS011;53654;54.152;19.432;2023-07-29T13:10:30;3.20;;;3.00;;
66741;SDS011;53654;54.152;19.432;2023-07-29T13:12:58;5.50;;;4.90;;
66741;SDS011;53654;54.152;19.432;2023-07-29T13:15:27;2.50;;;2.30;;
66741;SDS011;53654;54.152;19.432;2023-07-29T13:17:55;2.70;;;2.50;;
66741;SDS011;53654;54.152;19.432;2023-07-29T13:20:23;2.70;;;2.50;;
66741;SDS011;53654;54.152;19.432;2023-07-29T13:22:52;3.50;;;2.50;;
66741;SDS011;53654;54.152;19.432;2023-07-29T13:25:20;2.80;;;2.60;;
66741;SDS011;53654;54.152;19.432;2023-07-29T13:27:50;3.10;;;2.80;;
66741;SDS011;53654;54.152;19.432;2023-07-29T13:30:21;2.60;;;2.40;;
66741;SDS011;53654;54.152;19.432;2023-07-29T13:32:49;3.50;;;3.20;;
66741;SDS011;53654;54.152;19.432;2023-07-29T13:35:17;3.30;;;3.00;;
66741;SDS011;53654;54.152;19.432;2023-07-29T13:37:45;3.00;;;2.10;;
66741;SDS011;53654;54.152;19.432;2023-07-29T13:40:14;2.40;;;2.20;;
66741;SDS011;53654;54.152;19.432;2023-07-29T13:42:42;2.50;;;2.40;;
66741;SDS011;53654;54.152;19.432;2023-07-29T13:45:10;2.50;;;2.30;;
66741;SDS011;53654;54.152;19.432;2023-07-29T13:47:38;2.60;;;2.40;;
66741;SDS011;53654;54.152;19.432;2023-07-29T13:50:09;2.60;;;2.40;;
66741;SDS011;53654;54.152;19.432;2023-07-29T13:52:38;3.40;;;3.20;;
66741;SDS011;53654;54.152;19.432;2023-07-29T13:55:06;3.40;;;3.10;;
66741;SDS011;53654;54.152;19.432;2023-07-29T13:57:35;2.30;;;2.20;;
66741;SDS011;53654;54.152;19.432;2023-07-29T14:00:03;7.70;;;7.00;;
66741;SDS011;53654;54.152;19.432;2023-07-29T14:02:37;2.60;;;2.40;;
66741;SDS011;53654;54.152;19.432;2023-07-29T14:05:06;2.40;;;2.20;;
66741;SDS011;53654;54.152;19.432;2023-07-29T14:07:35;2.70;;;2.50;;
66741;SDS011;53654;54.152;19.432;2023-07-29T14:10:03;2.00;;;1.90;;
66741;SDS011;53654;54.152;19.432;2023-07-29T14:12:33;2.40;;;2.20;;
66741;SDS011;53654;54.152;19.432;2023-07-29T14:15:02;2.20;;;2.00;;
66741;SDS011;53654;54.152;19.432;2023-07-29T14:17:31;2.30;;;2.10;;
66741;SDS011;53654;54.152;19.432;2023-07-29T14:20:00;6.60;;;6.00;;
66741;SDS011;53654;54.152;19.432;2023-07-29T14:22:29;2.70;;;2.50;;
66741;SDS011;53654;54.152;19.432;2023-07-29T14:24:57;2.90;;;2.60;;
66741;SDS011;53654;54.152;19.432;2023-07-29T14:27:27;3.90;;;3.40;;
66741;SDS011;53654;54.152;19.432;2023-07-29T14:29:55;2.80;;;2.60;;
66741;SDS011;53654;54.152;19.432;2023-07-29T14:32:23;3.20;;;2.90;;
66741;SDS011;53654;54.152;19.432;2023-07-29T14:34:52;2.30;;;2.20;;
66741;SDS011;53654;54.152;19.432;2023-07-29T14:37:20;3.80;;;3.50;;
66741;SDS011;53654;54.152;19.432;2023-07-29T14:39:48;3.40;;;3.10;;
66741;SDS011;53654;54.152;19.432;2023-07-29T14:42:17;2.60;;;2.50;;
66741;SDS011;53654;54.152;19.432;2023-07-29T14:44:45;2.60;;;2.40;;
66741;SDS011;53654;54.152;19.432;2023-07-29T14:47:13;2.70;;;2.40;;
66741;SDS011;53654;54.152;19.432;2023-07-29T14:49:41;2.60;;;2.40;;
66741;SDS011;53654;54.152;19.432;2023-07-29T14:52:09;2.70;;;2.50;;
66741;SDS011;53654;54.152;19.432;2023-07-29T14:54:38;3.20;;;3.00;;